Rake, Iowa
Current Conditions -  °F | °C
As of 9:55 PM on Sunday 23 Nov 2014 (Local Time) from KFXY Reporting Station
Overcast Overcast  
Wind Chill: -5°   Ceiling: 2700
Heat Index:   Visibility: 10mi
Dew Point:   Wind: 21mph
Humidity: 93%   Direction: 320°NW
Pressure: 29.36"   Gusts: 31mph
Location:  43.48°N, 93.92°W
Report Text: KFXY 240355Z AUTO 32018G27KT 10SM SCT019 BKN027 OVC050 01/00 A2936 RMK AO2
Loading
Personal Weather Stations






























Interactive Weather Map New forecast layout! Learn more

10-Day Weather Forecast

Advertisements
Track Severe Weather on mobile